Le Mars, IA

2:07 AM CDT on May 26, 2018 (GMT -0500)
Le Mars Municipal

Weather History for KLRJ - October, 2011

Change the Weather History Date:

Sunday, October 30, 2011

  Actual Average Record
Temperature  
Mean Temperature 46 °F -  
Max Temperature 57 °F 56 °F 76 °F (1990)
Min Temperature 32 °F 34 °F 15 °F (1991)
Degree Days  
Heating Degree Days 19    
Moisture  
Dew Point 27 °F    
Average Humidity 50    
Maximum Humidity 81    
Minimum Humidity 23    
Precipitation  
Precipitation 0.00 in - - ()
Sea Level Pressure  
Sea Level Pressure 29.94 in    
Wind  
Wind Speed 10 mph (NW)    
Max Wind Speed 24 mph    
Max Gust Speed 32 mph    
Visibility 10 miles    
Events      
Averages and records for this station are not official NWS values.
T = Trace of Precipitation, MM = Missing Value Source: NWS Daily Summary

Daily Weather History Graph

Daily Weather History Graph

Search for Another Location

Airport or City:

Astronomy

Oct. 30, 2011 Rise Set
Actual Time 7:56 AM CDT 6:20 PM CDT
Civil Twilight 7:26 AM CDT 6:49 PM CDT
Nautical Twilight 6:53 AM CDT 7:22 PM CDT
Astronomical Twilight 6:20 AM CDT 7:55 PM CDT
Moon 12:20 PM CDT (10/30) 9:46 PM CDT (10/30)
Length of Visible Light 11h 22m
Length of Day
10h 24m
Waxing Crescent, 20% of the Moon is Illuminated
Oct 30
Waxing Crescent
Nov 2
First Quarter
Nov 10
Full
Nov 18
Last Quarter
Nov 25
New

Hourly Weather History & Observations

Time (CDT) Temp. Windchill Dew Point Humidity Pressure Visibility Wind Dir Wind Speed Gust Speed Precip Events Conditions
12:15 AM 48.2 °F - 24.8 °F 40% 29.81 in 10.0 mi West 4.6 mph - N/A   Clear
12:35 AM 44.6 °F 42.2 °F 24.8 °F 46% 29.82 in 10.0 mi West 4.6 mph - N/A   Clear
12:55 AM 44.6 °F - 24.8 °F 46% 29.82 in 10.0 mi Calm Calm - N/A   Clear
1:15 AM 46.4 °F 45.2 °F 26.6 °F 46% 29.81 in 10.0 mi SSW 3.5 mph - N/A   Clear
1:35 AM 42.8 °F - 26.6 °F 53% 29.82 in 10.0 mi Calm Calm - N/A   Clear
1:55 AM 46.4 °F 43.5 °F 28.4 °F 50% 29.83 in 10.0 mi NW 5.8 mph - N/A   Clear
2:15 AM 48.2 °F - 28.4 °F 46% 29.84 in 10.0 mi NW 8.1 mph - N/A   Clear
2:35 AM 48.2 °F - 28.4 °F 46% 29.84 in 10.0 mi NW 9.2 mph - N/A   Scattered Clouds
2:55 AM 48.2 °F - 28.4 °F 46% 29.85 in 10.0 mi WNW 8.1 mph - N/A   Scattered Clouds
3:15 AM 46.4 °F 42.9 °F 30.2 °F 53% 29.85 in 10.0 mi NW 6.9 mph - N/A   Clear
3:55 AM 46.4 °F 43.5 °F 32.0 °F 57% 29.86 in 10.0 mi NW 5.8 mph - N/A   Mostly Cloudy
4:15 AM 46.4 °F 41.5 °F 33.8 °F 62% 29.86 in 10.0 mi WNW 10.4 mph - N/A   Overcast
4:35 AM 46.4 °F 40.4 °F 35.6 °F 66% 29.87 in 10.0 mi NW 13.8 mph 18.4 mph N/A   Mostly Cloudy
4:55 AM 44.6 °F 38.8 °F 35.6 °F 71% 29.88 in 10.0 mi NW 11.5 mph 18.4 mph N/A   Clear
5:15 AM 44.6 °F 38.1 °F 35.6 °F 71% 29.88 in 10.0 mi WNW 13.8 mph 19.6 mph N/A   Clear
5:35 AM 42.8 °F 36.6 °F 35.6 °F 76% 29.89 in 10.0 mi NW 11.5 mph - N/A   Clear
5:55 AM 42.8 °F 36.2 °F 35.6 °F 76% 29.91 in 10.0 mi NW 12.7 mph 18.4 mph N/A   Scattered Clouds
6:15 AM 42.8 °F 36.2 °F 35.6 °F 76% 29.91 in 10.0 mi NW 12.7 mph 20.7 mph N/A   Scattered Clouds
6:35 AM 42.8 °F 36.6 °F 35.6 °F 76% 29.92 in 10.0 mi NW 11.5 mph - N/A   Clear
7:15 AM 41.0 °F 34.7 °F 33.8 °F 76% 29.93 in 10.0 mi NW 10.4 mph - N/A   Clear
7:35 AM 41.0 °F 34.3 °F 33.8 °F 76% 29.93 in 10.0 mi NW 11.5 mph - N/A   Clear
7:55 AM 39.2 °F 34.2 °F 32.0 °F 75% 29.94 in 10.0 mi NW 6.9 mph - N/A   Clear
8:15 AM 39.2 °F 35.0 °F 32.0 °F 75% 29.94 in 10.0 mi NW 5.8 mph - N/A   Clear
8:35 AM 39.2 °F 35.0 °F 32.0 °F 75% 29.95 in 10.0 mi WNW 5.8 mph - N/A   Clear
8:55 AM 39.2 °F 34.2 °F 33.8 °F 81% 29.95 in 10.0 mi WNW 6.9 mph - N/A   Clear
9:15 AM 42.8 °F 36.2 °F 33.8 °F 70% 29.95 in 10.0 mi NW 12.7 mph 18.4 mph N/A   Clear
9:35 AM 42.8 °F 36.2 °F 32.0 °F 66% 29.96 in 10.0 mi NW 12.7 mph 17.3 mph N/A   Clear
9:55 AM 44.6 °F 38.1 °F 32.0 °F 61% 29.96 in 10.0 mi NW 13.8 mph 18.4 mph N/A   Clear
10:15 AM 46.4 °F 39.8 °F 30.2 °F 53% 29.96 in 10.0 mi NW 16.1 mph - N/A   Clear
10:35 AM 46.4 °F 40.1 °F 30.2 °F 53% 29.96 in 10.0 mi NW 15.0 mph 21.9 mph N/A   Clear
10:55 AM 48.2 °F - 30.2 °F 50% 29.96 in 10.0 mi WNW 16.1 mph 24.2 mph N/A   Clear
11:15 AM 48.2 °F - 30.2 °F 50% 29.96 in 10.0 mi NW 16.1 mph 21.9 mph N/A   Clear
11:35 AM 50.0 °F - 28.4 °F 43% 29.97 in 10.0 mi NW 18.4 mph 21.9 mph N/A   Clear
11:55 AM 51.8 °F - 28.4 °F 41% 29.97 in 10.0 mi NW 17.3 mph 24.2 mph N/A   Clear
12:15 PM 51.8 °F - 26.6 °F 38% 29.97 in 10.0 mi NW 16.1 mph 29.9 mph N/A   Clear
12:35 PM 53.6 °F - 26.6 °F 35% 29.96 in 10.0 mi NW 19.6 mph 31.1 mph N/A   Clear
12:55 PM 53.6 °F - 24.8 °F 33% 29.96 in 10.0 mi NNW 21.9 mph 31.1 mph N/A   Clear
1:15 PM 53.6 °F - 23.0 °F 30% 29.95 in 10.0 mi NW 21.9 mph 31.1 mph N/A   Clear
1:35 PM 55.4 °F - 23.0 °F 29% 29.95 in 10.0 mi NNW 18.4 mph 28.8 mph N/A   Clear
1:55 PM 53.6 °F - 21.2 °F 28% 29.94 in 10.0 mi NW 19.6 mph 28.8 mph N/A   Clear
2:15 PM 55.4 °F - 21.2 °F 26% 29.94 in 10.0 mi NW 20.7 mph 32.2 mph N/A   Scattered Clouds
2:35 PM 55.4 °F - 21.2 °F 26% 29.94 in 10.0 mi NW 24.2 mph 28.8 mph N/A   Scattered Clouds
2:55 PM 55.4 °F - 21.2 °F 26% 29.94 in 10.0 mi NW 17.3 mph 29.9 mph N/A   Scattered Clouds
3:15 PM 55.4 °F - 21.2 °F 26% 29.94 in 10.0 mi NNW 19.6 mph 26.5 mph N/A   Scattered Clouds
3:35 PM 57.2 °F - 19.4 °F 23% 29.94 in 10.0 mi NW 24.2 mph 29.9 mph N/A   Scattered Clouds
3:55 PM 55.4 °F - 19.4 °F 25% 29.94 in 10.0 mi NW 21.9 mph 29.9 mph N/A   Clear
4:15 PM 55.4 °F - 19.4 °F 25% 29.94 in 10.0 mi NW 20.7 mph 32.2 mph N/A   Clear
4:35 PM 55.4 °F - 19.4 °F 25% 29.95 in 10.0 mi NW 16.1 mph 28.8 mph N/A   Clear
4:55 PM 55.4 °F - 19.4 °F 25% 29.96 in 10.0 mi NW 19.6 mph 28.8 mph N/A   Clear
5:15 PM 53.6 °F - 19.4 °F 26% 29.96 in 10.0 mi NW 18.4 mph 28.8 mph N/A   Clear
5:35 PM 53.6 °F - 21.2 °F 28% 29.97 in 10.0 mi NNW 15.0 mph 24.2 mph N/A   Clear
6:15 PM 48.2 °F - 23.0 °F 37% 29.99 in 10.0 mi NNW 12.7 mph 17.3 mph N/A   Clear
6:35 PM 48.2 °F - 23.0 °F 37% 30.00 in 10.0 mi NNW 9.2 mph - N/A   Clear
6:55 PM 46.4 °F 42.9 °F 24.8 °F 43% 30.01 in 10.0 mi NNW 6.9 mph - N/A   Clear
7:15 PM 44.6 °F 40.7 °F 24.8 °F 46% 30.01 in 10.0 mi NNW 6.9 mph - N/A   Clear
7:35 PM 42.8 °F 39.3 °F 24.8 °F 49% 30.02 in 10.0 mi NNW 5.8 mph - N/A   Clear
7:55 PM 41.0 °F 39.0 °F 24.8 °F 53% 30.03 in 10.0 mi NNW 3.5 mph - N/A   Clear
8:15 PM 39.2 °F 37.0 °F 24.8 °F 56% 30.03 in 10.0 mi NNW 3.5 mph - N/A   Clear
8:35 PM 39.2 °F 35.0 °F 24.8 °F 56% 30.03 in 10.0 mi NNW 5.8 mph - N/A   Clear
8:55 PM 39.2 °F 35.9 °F 24.8 °F 56% 30.03 in 10.0 mi NNE 4.6 mph - N/A   Clear
9:15 PM 37.4 °F 34.9 °F 24.8 °F 60% 30.04 in 10.0 mi NNE 3.5 mph - N/A   Clear
9:35 PM 35.6 °F - 24.8 °F 65% 30.04 in 10.0 mi Calm Calm - N/A   Clear
9:55 PM 32.0 °F - 23.0 °F 69% 30.04 in 10.0 mi Calm Calm - N/A   Clear
10:15 PM 30.2 °F - 23.0 °F 75% 30.04 in 10.0 mi Calm Calm - N/A   Clear
10:35 PM 30.2 °F - 23.0 °F 75% 30.05 in 10.0 mi Calm Calm - N/A   Clear
10:55 PM 26.6 °F - 21.2 °F 80% 30.05 in 10.0 mi Calm Calm - N/A   Clear
11:15 PM 28.4 °F - 23.0 °F 80% 30.05 in 10.0 mi Calm Calm - N/A   Clear
11:35 PM 26.6 °F - 21.2 °F 80% 30.05 in 10.0 mi Calm Calm - N/A   Clear
11:55 PM 26.6 °F - 21.2 °F 80% 30.04 in 10.0 mi Calm Calm - N/A   Clear